Time;durP1;ratioP1;P1;durP2;ratioP2;P2;SDS_P1;SDS_P2;PMS_P1;PMS_P2;Temp;Humidity;BMP_temperature;BMP_pressure;BME280_temperature;BME280_humidity;BME280_pressure;Samples;Min_cycle;Max_cycle;Signal;HPM_P1;HPM_P2
2022/02/26 00:00:06;;;;;;;275.60;263.73;;;1.40;99.90;;;;;;4377042;32;20487;-63
2022/02/26 00:02:33;;;;;;;287.87;275.03;;;1.40;99.90;;;;;;4378248;32;20263;-63
2022/02/26 00:05:00;;;;;;;281.03;268.43;;;1.40;99.90;;;;;;4373276;32;20212;-63
2022/02/26 00:07:29;;;;;;;280.20;267.97;;;1.30;99.90;;;;;;4370549;32;20152;-63
2022/02/26 00:09:56;;;;;;;280.00;267.70;;;1.30;99.90;;;;;;4376205;32;20169;-63
2022/02/26 00:12:23;;;;;;;275.70;263.47;;;1.30;99.90;;;;;;4373564;32;20166;-63
2022/02/26 00:14:50;;;;;;;278.80;266.07;;;1.20;99.90;;;;;;4376812;32;20607;-63
2022/02/26 00:17:19;;;;;;;283.40;270.63;;;1.20;99.90;;;;;;4377034;32;20180;-62
2022/02/26 00:19:45;;;;;;;284.87;271.90;;;1.20;99.90;;;;;;4373360;32;20141;-63
2022/02/26 00:22:14;;;;;;;279.03;266.70;;;1.20;99.90;;;;;;4377981;32;20156;-63
2022/02/26 00:24:41;;;;;;;289.60;276.90;;;1.10;99.90;;;;;;4376448;32;20228;-62
2022/02/26 00:27:08;;;;;;;296.63;283.50;;;1.10;99.90;;;;;;4377901;32;20142;-63
2022/02/26 00:29:35;;;;;;;280.03;267.87;;;1.10;99.90;;;;;;4374223;32;20215;-63
2022/02/26 00:32:02;;;;;;;283.20;270.27;;;1.10;99.90;;;;;;4376876;32;20438;-63
2022/02/26 00:34:31;;;;;;;281.53;268.77;;;1.00;99.90;;;;;;4378062;32;20218;-62
2022/02/26 00:36:57;;;;;;;286.20;272.93;;;1.00;99.90;;;;;;4377664;32;20242;-62
2022/02/26 00:39:24;;;;;;;285.80;272.97;;;1.00;99.90;;;;;;4375799;32;20259;-63
2022/02/26 00:41:51;;;;;;;290.30;276.97;;;1.00;99.90;;;;;;4377846;32;20166;-63
2022/02/26 00:44:18;;;;;;;288.17;275.00;;;1.00;99.90;;;;;;4375120;32;20184;-62
2022/02/26 00:46:46;;;;;;;289.20;275.80;;;1.00;99.90;;;;;;4376181;32;20280;-63
2022/02/26 00:52:10;;;;;;;286.53;274.03;;;0.90;99.90;;;;;;4357344;32;20145;-62
2022/02/26 00:54:37;;;;;;;283.60;270.43;;;0.80;99.90;;;;;;4355913;32;20171;-62
2022/02/26 00:57:04;;;;;;;285.93;273.60;;;0.80;99.90;;;;;;4360861;32;20228;-62
2022/02/26 00:59:31;;;;;;;300.83;287.73;;;0.80;99.90;;;;;;4359232;32;20223;-63
2022/02/26 01:01:58;;;;;;;303.50;290.33;;;0.80;99.90;;;;;;4359944;32;20219;-62
2022/02/26 01:04:28;;;;;;;297.67;284.83;;;0.80;99.90;;;;;;4359662;32;20240;-63
2022/02/26 01:06:54;;;;;;;290.93;278.00;;;0.80;99.90;;;;;;4359720;33;20667;-62
2022/02/26 01:09:25;;;;;;;287.07;274.40;;;0.80;99.90;;;;;;4356996;32;20246;-64
2022/02/26 01:14:36;;;;;;;297.87;284.83;;;0.70;99.90;;;;;;4356561;32;20314;-64
2022/02/26 01:17:04;;;;;;;295.73;282.30;;;0.60;99.90;;;;;;4348263;32;20853;-66
2022/02/26 01:19:38;;;;;;;277.50;265.47;;;0.60;99.90;;;;;;4351629;32;20145;-63
2022/02/26 01:22:09;;;;;;;295.23;281.97;;;0.60;99.90;;;;;;4350421;32;20227;-63
2022/02/26 01:24:41;;;;;;;300.90;287.70;;;0.60;99.90;;;;;;4350268;32;20388;-62
2022/02/26 01:27:20;;;;;;;292.67;279.40;;;0.60;99.90;;;;;;4355604;32;20175;-64
2022/02/26 01:29:47;;;;;;;291.40;278.17;;;0.60;99.90;;;;;;4354899;32;20704;-63
2022/02/26 01:32:14;;;;;;;295.50;282.50;;;0.60;99.90;;;;;;4358825;32;20295;-65
2022/02/26 01:34:41;;;;;;;298.80;285.40;;;0.50;99.90;;;;;;4354661;32;20237;-62
2022/02/26 01:37:08;;;;;;;297.20;284.00;;;0.60;99.90;;;;;;4362598;32;20176;-64
2022/02/26 01:39:36;;;;;;;295.53;282.20;;;0.50;99.90;;;;;;4362211;32;20579;-64
2022/02/26 01:42:06;;;;;;;292.87;280.13;;;0.50;99.90;;;;;;4374044;32;20179;-65
2022/02/26 01:44:36;;;;;;;300.37;286.70;;;0.50;99.90;;;;;;4376880;32;20557;-65
2022/02/26 01:47:05;;;;;;;299.07;285.53;;;0.50;99.90;;;;;;4376176;32;20678;-63
2022/02/26 01:49:32;;;;;;;299.33;285.67;;;0.50;99.90;;;;;;4376453;32;20140;-62
2022/02/26 01:51:59;;;;;;;306.10;292.97;;;0.50;99.90;;;;;;4365733;32;20199;-66
2022/02/26 01:54:25;;;;;;;301.37;287.83;;;0.40;99.90;;;;;;4376855;32;20183;-67
2022/02/26 01:56:54;;;;;;;295.17;282.30;;;0.40;99.90;;;;;;4376612;32;20140;-64
2022/02/26 01:59:23;;;;;;;301.40;288.30;;;0.40;99.90;;;;;;4378113;32;20156;-66
2022/02/26 02:01:50;;;;;;;293.67;280.17;;;0.40;99.90;;;;;;4375012;32;20216;-66
2022/02/26 02:04:19;;;;;;;297.77;284.50;;;0.40;99.90;;;;;;4369602;32;20625;-66
2022/02/26 02:06:46;;;;;;;292.77;280.27;;;0.30;99.90;;;;;;4375462;32;20160;-65
2022/02/26 02:09:15;;;;;;;302.90;289.37;;;0.30;99.90;;;;;;4376553;32;20212;-66
2022/02/26 02:11:44;;;;;;;295.47;282.40;;;0.30;99.90;;;;;;4373318;32;20140;-64
2022/02/26 02:14:11;;;;;;;299.30;286.03;;;0.30;99.90;;;;;;4376297;32;20235;-63
2022/02/26 02:16:39;;;;;;;294.20;281.17;;;0.30;99.90;;;;;;4375684;32;20227;-64
2022/02/26 02:19:07;;;;;;;294.43;281.50;;;0.30;99.90;;;;;;4376544;32;20572;-65
2022/02/26 02:21:34;;;;;;;292.83;279.67;;;0.20;99.90;;;;;;4370456;32;20339;-64
2022/02/26 02:24:03;;;;;;;306.43;293.23;;;0.20;99.90;;;;;;4365250;32;20176;-66
2022/02/26 02:26:34;;;;;;;302.67;288.27;;;0.10;99.90;;;;;;4375556;32;20196;-64
2022/02/26 02:29:01;;;;;;;302.63;288.67;;;0.20;99.90;;;;;;4373144;32;20133;-63
2022/02/26 02:31:28;;;;;;;295.40;282.13;;;0.10;99.90;;;;;;4369593;32;20300;-66
2022/02/26 02:33:55;;;;;;;292.00;279.37;;;0.10;99.90;;;;;;4375569;32;20695;-65
2022/02/26 02:36:23;;;;;;;297.40;283.90;;;0.10;99.90;;;;;;4375453;32;20229;-65
2022/02/26 02:38:50;;;;;;;302.23;289.03;;;0.10;99.90;;;;;;4375497;32;20622;-66
2022/02/26 02:41:18;;;;;;;310.90;297.00;;;0.00;99.90;;;;;;4373177;32;20255;-66
2022/02/26 02:43:45;;;;;;;303.37;289.63;;;0.00;99.90;;;;;;4375425;32;20168;-67
2022/02/26 02:46:14;;;;;;;303.27;290.27;;;0.00;99.90;;;;;;4375458;32;20144;-64
2022/02/26 02:48:42;;;;;;;311.40;296.73;;;0.00;99.90;;;;;;4374956;32;20216;-65
2022/02/26 02:51:09;;;;;;;300.00;286.43;;;0.00;99.90;;;;;;4375691;32;20140;-63
2022/02/26 02:53:36;;;;;;;302.43;289.17;;;0.00;99.90;;;;;;4363372;32;20216;-65
2022/02/26 02:56:03;;;;;;;301.33;288.27;;;-0.10;99.90;;;;;;4375124;32;20523;-62
2022/02/26 02:58:31;;;;;;;314.53;300.83;;;-0.10;99.90;;;;;;4370482;32;20141;-62
2022/02/26 03:00:59;;;;;;;295.07;282.07;;;-0.10;99.90;;;;;;4363286;32;20156;-65
2022/02/26 03:03:26;;;;;;;303.90;290.80;;;-0.10;99.90;;;;;;4363684;32;20180;-65
2022/02/26 03:05:54;;;;;;;300.10;287.10;;;-0.10;99.90;;;;;;4374300;32;20144;-62
2022/02/26 03:08:24;;;;;;;309.50;295.40;;;-0.10;99.90;;;;;;4375724;32;20575;-63
2022/02/26 03:10:51;;;;;;;310.47;296.83;;;-0.10;99.90;;;;;;4374310;32;20512;-64
2022/02/26 03:13:23;;;;;;;300.77;287.47;;;-0.20;99.90;;;;;;4367368;32;20156;-64
2022/02/26 03:15:52;;;;;;;307.50;293.67;;;-0.20;99.90;;;;;;4364051;32;20488;-63
2022/02/26 03:18:20;;;;;;;307.47;293.33;;;-0.20;99.90;;;;;;4375672;32;20231;-62
2022/02/26 03:20:47;;;;;;;305.27;291.30;;;-0.20;99.90;;;;;;4375144;32;20160;-61
2022/02/26 03:23:14;;;;;;;314.27;300.03;;;-0.20;99.90;;;;;;4367674;32;20657;-62
2022/02/26 03:25:44;;;;;;;316.87;302.97;;;-0.20;99.90;;;;;;4372621;32;20291;-62
2022/02/26 03:28:11;;;;;;;316.83;303.17;;;-0.20;99.90;;;;;;4375268;32;20192;-64
2022/02/26 03:30:39;;;;;;;299.67;286.73;;;-0.20;99.90;;;;;;4374958;32;20136;-63
2022/02/26 03:33:08;;;;;;;301.90;288.53;;;-0.20;99.90;;;;;;4372935;32;20638;-63
2022/02/26 03:35:35;;;;;;;303.80;290.70;;;-0.20;99.90;;;;;;4374282;32;20196;-61
2022/02/26 03:38:05;;;;;;;307.90;293.10;;;-0.20;99.90;;;;;;4374919;32;20160;-64
2022/02/26 03:40:33;;;;;;;314.17;300.33;;;-0.20;99.90;;;;;;4375187;32;20179;-62
2022/02/26 03:43:00;;;;;;;301.73;288.20;;;-0.20;99.90;;;;;;4371025;32;20165;-63
2022/02/26 03:45:27;;;;;;;302.23;288.20;;;-0.20;99.90;;;;;;4363767;32;20148;-63
2022/02/26 03:47:55;;;;;;;301.73;288.50;;;-0.20;99.90;;;;;;4375252;32;20228;-64
2022/02/26 03:50:23;;;;;;;306.57;292.13;;;-0.20;99.90;;;;;;4376060;32;20211;-63
2022/02/26 03:52:50;;;;;;;305.53;292.07;;;-0.20;99.90;;;;;;4374705;32;20149;-63
2022/02/26 03:55:17;;;;;;;302.53;289.00;;;-0.20;99.90;;;;;;4373614;32;20236;-66
2022/02/26 03:57:44;;;;;;;302.13;288.90;;;-0.20;99.90;;;;;;4374324;32;20167;-64
2022/02/26 04:00:12;;;;;;;307.73;293.77;;;-0.20;99.90;;;;;;4375059;32;20144;-63
2022/02/26 04:02:39;;;;;;;294.37;280.57;;;-0.30;99.90;;;;;;4375226;32;20246;-63
2022/02/26 04:05:06;;;;;;;309.63;296.33;;;-0.30;99.90;;;;;;4373011;32;20211;-64
2022/02/26 04:07:35;;;;;;;309.50;295.33;;;-0.30;99.90;;;;;;4374664;32;20220;-60
2022/02/26 04:10:02;;;;;;;303.40;290.13;;;-0.30;99.90;;;;;;4374686;32;20154;-62
2022/02/26 04:12:29;;;;;;;300.47;286.63;;;-0.30;99.90;;;;;;4374873;32;20199;-62
2022/02/26 04:14:56;;;;;;;304.33;291.30;;;-0.30;99.90;;;;;;4363734;32;20207;-61
2022/02/26 04:17:23;;;;;;;313.23;298.90;;;-0.30;99.90;;;;;;4372859;32;20157;-61
2022/02/26 04:19:49;;;;;;;310.23;296.17;;;-0.30;99.90;;;;;;4374873;32;20154;-63
2022/02/26 04:22:16;;;;;;;316.83;302.67;;;-0.30;99.90;;;;;;4375291;32;20561;-63
2022/02/26 04:24:44;;;;;;;312.47;298.73;;;-0.30;99.90;;;;;;4373393;32;20209;-63
2022/02/26 04:27:11;;;;;;;309.67;295.67;;;-0.30;99.90;;;;;;4374763;32;21119;-65
2022/02/26 04:29:38;;;;;;;314.27;299.87;;;-0.30;99.90;;;;;;4372225;32;20504;-65
2022/02/26 04:32:06;;;;;;;296.63;283.33;;;-0.30;99.90;;;;;;4373019;32;20200;-65
2022/02/26 04:34:33;;;;;;;311.00;297.23;;;-0.30;99.90;;;;;;4373329;32;20615;-65
2022/02/26 04:36:59;;;;;;;298.93;285.33;;;-0.40;99.90;;;;;;4377426;32;20204;-62
2022/02/26 04:39:26;;;;;;;311.97;297.87;;;-0.40;99.90;;;;;;4362641;32;20144;-63
2022/02/26 04:41:54;;;;;;;320.43;305.03;;;-0.40;99.90;;;;;;4374868;32;20160;-62
2022/02/26 04:44:21;;;;;;;303.70;290.27;;;-0.40;99.90;;;;;;4375220;32;20508;-64
2022/02/26 04:46:52;;;;;;;307.67;293.37;;;-0.40;99.90;;;;;;4377454;32;20149;-64
2022/02/26 04:49:18;;;;;;;310.70;296.23;;;-0.30;99.90;;;;;;4376736;32;20174;-63
2022/02/26 04:51:45;;;;;;;306.67;293.10;;;-0.30;99.90;;;;;;4370363;32;20188;-62
2022/02/26 04:54:13;;;;;;;311.90;298.30;;;-0.20;99.90;;;;;;4373630;32;20179;-64
2022/02/26 04:56:40;;;;;;;330.27;315.27;;;-0.30;99.90;;;;;;4375078;32;20204;-61
2022/02/26 04:59:08;;;;;;;312.00;298.20;;;-0.20;99.90;;;;;;4377096;32;20186;-63
2022/02/26 05:01:35;;;;;;;323.90;308.97;;;-0.20;99.90;;;;;;4378555;32;20535;-64
2022/02/26 05:04:01;;;;;;;340.87;325.53;;;-0.20;99.90;;;;;;4376714;32;20201;-61
2022/02/26 05:06:28;;;;;;;327.40;312.57;;;-0.20;99.90;;;;;;4365488;32;20165;-63
2022/02/26 05:08:55;;;;;;;330.53;315.00;;;-0.20;99.90;;;;;;4374583;32;20644;-62
2022/02/26 05:11:22;;;;;;;322.67;307.90;;;-0.20;99.90;;;;;;4377654;32;21911;-65
2022/02/26 05:13:48;;;;;;;324.40;309.30;;;-0.20;99.90;;;;;;4375969;32;20235;-62
2022/02/26 05:16:17;;;;;;;318.23;303.03;;;-0.30;99.90;;;;;;4374518;32;20208;-63
2022/02/26 05:18:45;;;;;;;318.47;303.80;;;-0.30;99.90;;;;;;4377528;32;20172;-61
2022/02/26 05:21:15;;;;;;;318.80;303.63;;;-0.20;99.90;;;;;;4378343;32;20627;-62
2022/02/26 05:23:42;;;;;;;321.07;306.03;;;-0.30;99.90;;;;;;4377252;32;20212;-63
2022/02/26 05:26:10;;;;;;;336.97;321.33;;;-0.30;99.90;;;;;;4373818;32;20226;-63
2022/02/26 05:28:37;;;;;;;326.07;310.97;;;-0.30;99.90;;;;;;4375805;32;20175;-61
2022/02/26 05:31:04;;;;;;;331.27;315.90;;;-0.30;99.90;;;;;;4377283;32;20186;-61
2022/02/26 05:33:33;;;;;;;324.50;308.67;;;-0.40;99.90;;;;;;4383631;32;20176;-62
2022/02/26 05:35:59;;;;;;;326.20;311.27;;;-0.40;99.90;;;;;;4373665;32;20628;-63
2022/02/26 05:38:26;;;;;;;325.13;310.67;;;-0.40;99.90;;;;;;4376717;32;20172;-65
2022/02/26 05:40:53;;;;;;;322.60;307.33;;;-0.40;99.90;;;;;;4376987;32;20581;-63
2022/02/26 05:43:20;;;;;;;323.20;308.07;;;-0.40;99.90;;;;;;4365154;32;20176;-64
2022/02/26 05:45:47;;;;;;;324.83;309.33;;;-0.40;99.90;;;;;;4376694;32;20192;-64
2022/02/26 05:48:14;;;;;;;326.00;310.53;;;-0.50;99.90;;;;;;4361693;32;20171;-64
2022/02/26 05:50:45;;;;;;;322.63;307.73;;;-0.40;99.90;;;;;;4363473;32;20182;-64
2022/02/26 05:53:12;;;;;;;333.10;317.00;;;-0.40;99.90;;;;;;4376121;32;20156;-62
2022/02/26 05:55:39;;;;;;;328.03;312.30;;;-0.40;99.90;;;;;;4376140;32;20186;-62
2022/02/26 05:58:06;;;;;;;330.73;315.13;;;-0.40;99.90;;;;;;4374231;32;20196;-63
2022/02/26 06:00:34;;;;;;;344.33;327.63;;;-0.40;99.90;;;;;;4374618;32;20239;-64
2022/02/26 06:03:01;;;;;;;329.90;313.73;;;-0.30;99.90;;;;;;4377570;32;20188;-64
2022/02/26 06:05:28;;;;;;;342.03;324.40;;;-0.40;99.90;;;;;;4376310;32;20175;-66
2022/02/26 06:07:56;;;;;;;330.07;313.87;;;-0.30;99.90;;;;;;4370247;32;20192;-63
2022/02/26 06:10:23;;;;;;;325.23;309.57;;;-0.30;99.90;;;;;;4375911;32;20216;-63
2022/02/26 06:12:50;;;;;;;329.67;314.10;;;-0.30;99.90;;;;;;4375499;32;20168;-62
2022/02/26 06:15:16;;;;;;;334.97;318.80;;;-0.30;99.90;;;;;;4376589;32;20207;-63
2022/02/26 06:17:43;;;;;;;330.60;314.27;;;-0.30;99.90;;;;;;4370786;32;20156;-65
2022/02/26 06:20:12;;;;;;;335.60;318.97;;;-0.30;99.90;;;;;;4376965;32;20635;-64
2022/02/26 06:22:39;;;;;;;339.40;322.87;;;-0.30;99.90;;;;;;4375933;32;20175;-63
2022/02/26 06:25:08;;;;;;;341.70;324.57;;;-0.30;99.90;;;;;;4375688;32;20163;-63
2022/02/26 06:27:37;;;;;;;347.37;330.27;;;-0.30;99.90;;;;;;4371468;32;20148;-63
2022/02/26 06:30:04;;;;;;;341.53;325.27;;;-0.30;99.90;;;;;;4374252;32;20160;-64
2022/02/26 06:32:31;;;;;;;332.23;315.93;;;-0.30;99.90;;;;;;4375564;32;20179;-63
2022/02/26 06:34:58;;;;;;;322.33;307.17;;;-0.40;99.90;;;;;;4370968;32;20487;-64
2022/02/26 06:37:25;;;;;;;330.73;313.70;;;-0.30;99.90;;;;;;4375080;32;20220;-64
2022/02/26 06:39:51;;;;;;;341.93;324.70;;;-0.30;99.90;;;;;;4371985;32;20220;-64
2022/02/26 06:42:20;;;;;;;333.87;317.70;;;-0.30;99.90;;;;;;4374880;32;20176;-64
2022/02/26 06:44:47;;;;;;;337.50;321.43;;;-0.30;99.90;;;;;;4374751;32;20679;-64
2022/02/26 06:47:14;;;;;;;334.30;317.43;;;-0.30;99.90;;;;;;4371803;32;20160;-63
2022/02/26 06:49:41;;;;;;;334.53;317.60;;;-0.30;99.90;;;;;;4374663;32;20172;-65
2022/02/26 06:52:08;;;;;;;342.37;325.40;;;-0.30;99.90;;;;;;4374903;32;20175;-63
2022/02/26 06:54:35;;;;;;;332.63;316.40;;;-0.20;99.90;;;;;;4375006;32;20160;-64
2022/02/26 06:57:02;;;;;;;339.63;323.23;;;-0.20;99.90;;;;;;4375010;32;20583;-64
2022/02/26 06:59:33;;;;;;;338.20;321.33;;;-0.20;99.90;;;;;;4372597;32;20272;-62
2022/02/26 07:02:00;;;;;;;333.90;317.43;;;-0.20;99.90;;;;;;4374730;32;20195;-63
2022/02/26 07:04:29;;;;;;;333.93;318.23;;;-0.20;99.90;;;;;;4371547;32;20202;-65
2022/02/26 07:06:55;;;;;;;336.37;320.90;;;-0.10;99.90;;;;;;4374231;32;20183;-64
2022/02/26 07:09:22;;;;;;;342.53;326.80;;;-0.10;99.90;;;;;;4373228;32;20153;-65
2022/02/26 07:11:50;;;;;;;342.90;327.07;;;-0.10;99.90;;;;;;4374183;32;20614;-66
2022/02/26 07:14:17;;;;;;;335.87;319.93;;;0.00;99.90;;;;;;4366347;32;20148;-63
2022/02/26 07:16:45;;;;;;;332.57;317.03;;;0.10;99.90;;;;;;4371146;32;20618;-65
2022/02/26 07:19:12;;;;;;;344.30;327.47;;;0.10;99.90;;;;;;4368654;32;20450;-66
2022/02/26 07:21:40;;;;;;;350.07;333.90;;;0.20;99.90;;;;;;4371118;32;20192;-62
2022/02/26 07:24:07;;;;;;;350.50;334.10;;;0.30;99.90;;;;;;4372031;32;20156;-66
2022/02/26 07:26:34;;;;;;;353.17;336.40;;;0.50;99.90;;;;;;4372436;32;20208;-63
2022/02/26 07:29:01;;;;;;;341.57;325.17;;;0.50;99.90;;;;;;4369685;32;20171;-63
2022/02/26 07:31:28;;;;;;;341.63;325.30;;;0.60;99.90;;;;;;4372409;32;20781;-63
2022/02/26 07:33:56;;;;;;;346.07;330.07;;;0.70;99.90;;;;;;4373093;32;20216;-62
2022/02/26 07:36:24;;;;;;;345.30;329.27;;;0.80;99.90;;;;;;4372882;32;20230;-63
2022/02/26 07:38:50;;;;;;;347.37;331.73;;;0.80;99.90;;;;;;4372049;32;20230;-65
2022/02/26 07:41:17;;;;;;;346.20;330.13;;;0.90;99.90;;;;;;4375602;32;20188;-61
2022/02/26 07:43:44;;;;;;;344.17;328.47;;;1.20;99.90;;;;;;4375683;32;20219;-63
2022/02/26 07:46:11;;;;;;;350.63;333.90;;;1.30;99.90;;;;;;4371673;32;20208;-62
2022/02/26 07:48:38;;;;;;;338.70;323.10;;;1.50;99.90;;;;;;4370973;32;20243;-62
2022/02/26 07:51:06;;;;;;;346.83;330.50;;;1.70;99.90;;;;;;4371265;32;20149;-63
2022/02/26 07:53:33;;;;;;;335.37;320.37;;;1.90;99.90;;;;;;4373232;32;20156;-63
2022/02/26 07:56:00;;;;;;;336.13;320.87;;;2.00;99.90;;;;;;4372270;32;20199;-61
2022/02/26 07:58:27;;;;;;;338.53;323.30;;;2.20;99.90;;;;;;4372645;32;20231;-64
2022/02/26 08:00:54;;;;;;;331.07;316.07;;;2.40;99.90;;;;;;4372372;32;20566;-62
2022/02/26 08:03:21;;;;;;;332.67;317.20;;;2.60;99.90;;;;;;4375092;32;20149;-62
2022/02/26 08:05:48;;;;;;;313.40;299.23;;;2.70;99.90;;;;;;4371869;32;20217;-63
2022/02/26 08:08:16;;;;;;;303.87;289.83;;;2.80;99.90;;;;;;4368725;32;20165;-67
2022/02/26 08:10:43;;;;;;;291.40;278.37;;;2.90;99.90;;;;;;4373931;32;20864;-62
2022/02/26 08:13:10;;;;;;;280.57;267.67;;;2.90;99.90;;;;;;4374904;32;20188;-62
2022/02/26 08:15:37;;;;;;;271.30;259.27;;;2.90;99.90;;;;;;4376673;32;20178;-62
2022/02/26 08:18:05;;;;;;;265.13;253.07;;;2.80;99.90;;;;;;4375697;32;20588;-63
2022/02/26 08:20:31;;;;;;;270.40;258.57;;;2.80;99.90;;;;;;4374051;32;20218;-63
2022/02/26 08:22:58;;;;;;;261.43;249.40;;;2.70;99.90;;;;;;4374998;32;20263;-64
2022/02/26 08:25:26;;;;;;;268.47;256.57;;;2.70;99.90;;;;;;4375105;32;20179;-63
2022/02/26 08:27:53;;;;;;;280.37;267.67;;;2.80;99.90;;;;;;4376389;32;20276;-63
2022/02/26 08:30:23;;;;;;;263.57;251.40;;;2.90;99.90;;;;;;4374999;32;20213;-65
2022/02/26 08:32:52;;;;;;;271.97;259.87;;;3.00;99.90;;;;;;4374733;32;20198;-64
2022/02/26 08:35:22;;;;;;;275.73;263.27;;;3.00;99.90;;;;;;4371755;32;20716;-64
2022/02/26 08:37:52;;;;;;;268.70;256.70;;;3.10;99.90;;;;;;4375728;32;20218;-63
2022/02/26 08:40:21;;;;;;;256.80;245.33;;;3.10;99.90;;;;;;4374449;32;20484;-67
2022/02/26 08:42:50;;;;;;;273.53;260.87;;;3.10;99.90;;;;;;4375405;32;20666;-63
2022/02/26 08:45:17;;;;;;;280.97;268.73;;;3.10;99.90;;;;;;4374583;32;20251;-63
2022/02/26 08:47:45;;;;;;;285.97;272.83;;;3.10;99.90;;;;;;4375933;32;20183;-64
2022/02/26 08:50:19;;;;;;;286.20;272.83;;;3.20;99.90;;;;;;4372030;32;20189;-63
2022/02/26 08:52:52;;;;;;;296.53;283.37;;;3.20;99.90;;;;;;4371195;32;20229;-64
2022/02/26 08:55:19;;;;;;;280.53;267.63;;;3.20;99.90;;;;;;4372117;32;20252;-62
2022/02/26 08:57:45;;;;;;;287.90;275.07;;;3.20;99.90;;;;;;4376143;32;20629;-67
2022/02/26 09:00:15;;;;;;;305.07;291.27;;;3.30;99.90;;;;;;4375350;32;20153;-63
2022/02/26 09:02:43;;;;;;;301.80;287.83;;;3.40;99.90;;;;;;4371347;32;20164;-61
2022/02/26 09:05:12;;;;;;;313.67;298.60;;;3.50;99.90;;;;;;4375318;32;20227;-63
2022/02/26 09:07:39;;;;;;;315.03;299.87;;;3.50;99.90;;;;;;4376355;32;20192;-63
2022/02/26 09:10:07;;;;;;;319.50;304.03;;;3.60;99.90;;;;;;4375872;32;20589;-63
2022/02/26 09:12:34;;;;;;;312.40;297.33;;;3.70;99.90;;;;;;4372924;32;20187;-61
2022/02/26 09:15:00;;;;;;;301.17;286.40;;;3.80;99.90;;;;;;4371822;32;20181;-63
2022/02/26 09:17:29;;;;;;;278.17;264.83;;;3.90;99.90;;;;;;4367319;32;20171;-65
2022/02/26 09:19:55;;;;;;;261.70;249.20;;;4.00;99.90;;;;;;4370876;32;20237;-63
2022/02/26 09:22:23;;;;;;;285.20;271.70;;;4.00;99.90;;;;;;4365112;32;20215;-67
2022/02/26 09:24:50;;;;;;;267.87;255.43;;;4.10;99.90;;;;;;4369407;32;20167;-64
2022/02/26 09:27:17;;;;;;;288.13;274.90;;;4.20;99.90;;;;;;4374413;32;20608;-64
2022/02/26 09:29:45;;;;;;;298.60;284.93;;;4.30;99.90;;;;;;4362190;32;20224;-61
2022/02/26 09:32:12;;;;;;;294.77;281.33;;;4.40;99.90;;;;;;4355107;32;20163;-60
2022/02/26 09:38:45;;;;;;;264.03;250.90;;;4.60;99.90;;;;;;4374181;32;20174;-66
2022/02/26 09:41:20;;;;;;;278.13;264.17;;;4.80;99.90;;;;;;4374190;32;20441;-63
2022/02/26 09:43:55;;;;;;;261.87;249.77;;;4.90;99.90;;;;;;4374829;32;20176;-62
2022/02/26 09:46:27;;;;;;;274.97;261.90;;;5.00;99.90;;;;;;4372019;32;20174;-62
2022/02/26 09:49:06;;;;;;;277.50;264.23;;;5.10;99.90;;;;;;4376422;32;20179;-63
2022/02/26 09:51:46;;;;;;;249.67;237.47;;;5.20;99.90;;;;;;4375182;32;20239;-62
2022/02/26 09:54:18;;;;;;;232.57;221.37;;;5.30;99.90;;;;;;4372277;32;20152;-63
2022/02/26 09:56:49;;;;;;;235.83;224.30;;;5.40;99.90;;;;;;4376221;32;20160;-65
2022/02/26 09:59:25;;;;;;;223.27;212.20;;;5.50;99.90;;;;;;4380523;32;20152;-64
2022/02/26 10:05:09;;;;;;;203.90;193.40;;;5.70;99.90;;;;;;4377362;32;20242;-64
2022/02/26 10:07:37;;;;;;;197.53;186.70;;;5.80;99.90;;;;;;4374720;32;20178;-67
2022/02/26 10:10:09;;;;;;;208.57;197.13;;;5.90;99.90;;;;;;4375650;32;20611;-66
2022/02/26 10:12:57;;;;;;;198.53;188.57;;;6.10;99.90;;;;;;4371951;32;20161;-64
2022/02/26 10:15:46;;;;;;;193.67;183.37;;;6.20;99.90;;;;;;4370179;32;20172;-64
2022/02/26 10:18:18;;;;;;;188.07;178.03;;;6.20;99.90;;;;;;4377347;32;20159;-65
2022/02/26 10:20:58;;;;;;;186.93;177.13;;;6.30;99.90;;;;;;4248698;32;3688341;-62
2022/02/26 10:23:29;;;;;;;177.70;168.07;;;6.40;99.90;;;;;;4359256;33;20172;-65
2022/02/26 10:29:15;;;;;;;181.87;172.53;;;6.60;99.90;;;;;;4312053;33;20162;-64
2022/02/26 10:31:57;;;;;;;173.43;164.33;;;6.70;99.90;;;;;;4314409;33;20188;-64
2022/02/26 10:34:37;;;;;;;152.50;144.70;;;6.80;99.90;;;;;;4313798;33;20165;-65
2022/02/26 10:37:11;;;;;;;166.77;158.30;;;6.70;99.90;;;;;;4313958;33;20165;-66
2022/02/26 10:39:43;;;;;;;175.43;165.73;;;6.80;99.90;;;;;;4314859;33;20189;-63
2022/02/26 10:42:32;;;;;;;173.83;164.77;;;6.70;99.90;;;;;;4315012;33;20185;-64
2022/02/26 10:45:22;;;;;;;170.70;162.07;;;6.80;99.90;;;;;;4314210;33;20216;-65
2022/02/26 10:48:10;;;;;;;160.87;152.33;;;6.80;99.90;;;;;;4313981;33;20178;-63
2022/02/26 10:50:41;;;;;;;171.53;163.30;;;6.90;99.90;;;;;;4313552;33;20154;-64
2022/02/26 10:53:22;;;;;;;164.70;156.43;;;6.90;99.90;;;;;;4313364;33;20173;-64
2022/02/26 10:55:52;;;;;;;172.43;163.37;;;6.90;99.90;;;;;;4314072;33;20588;-65
2022/02/26 10:58:28;;;;;;;168.40;160.10;;;7.00;99.90;;;;;;4314480;33;20208;-67
2022/02/26 11:09:40;;;;;;;150.87;142.93;;;7.10;99.90;;;;;;4292838;33;20565;-62
2022/02/26 11:12:18;;;;;;;172.80;164.07;;;7.20;99.90;;;;;;4296982;33;20232;-64
2022/02/26 11:15:01;;;;;;;157.60;149.27;;;7.20;99.90;;;;;;4299689;33;20158;-62
2022/02/26 11:17:37;;;;;;;157.30;149.17;;;7.40;99.90;;;;;;4298132;33;20244;-64
2022/02/26 11:20:15;;;;;;;133.03;126.13;;;7.50;99.90;;;;;;4299054;33;20174;-63
2022/02/26 11:22:45;;;;;;;134.80;127.80;;;7.50;99.90;;;;;;4296710;33;20197;-67
2022/02/26 11:25:12;;;;;;;149.60;142.53;;;7.50;99.90;;;;;;4300418;33;20156;-64
2022/02/26 11:27:41;;;;;;;112.93;107.33;;;7.60;99.90;;;;;;4298665;33;20162;-64
2022/02/26 11:30:19;;;;;;;142.10;135.20;;;7.80;99.90;;;;;;4298514;33;20164;-65
2022/02/26 11:32:51;;;;;;;146.17;139.20;;;7.70;99.90;;;;;;4290232;33;20183;-66
2022/02/26 11:35:21;;;;;;;145.23;137.73;;;7.60;99.90;;;;;;4306982;33;20197;-67
2022/02/26 11:37:53;;;;;;;149.50;142.37;;;7.50;99.90;;;;;;4314376;33;20201;-64
2022/02/26 11:40:22;;;;;;;143.33;136.50;;;7.50;99.90;;;;;;4312947;33;20224;-66
2022/02/26 11:42:55;;;;;;;143.67;136.77;;;7.80;99.90;;;;;;4313648;33;20215;-64
2022/02/26 11:45:28;;;;;;;129.27;122.57;;;7.90;99.90;;;;;;4362532;32;20177;-64
2022/02/26 11:48:02;;;;;;;141.70;135.13;;;8.20;99.90;;;;;;4349641;33;20181;-66
2022/02/26 11:50:35;;;;;;;131.17;125.10;;;8.40;99.90;;;;;;4364251;32;20193;-63
2022/02/26 11:53:10;;;;;;;126.13;120.00;;;8.60;99.90;;;;;;4363980;32;20174;-64
2022/02/26 11:55:43;;;;;;;124.07;118.37;;;8.60;99.90;;;;;;4362878;32;20581;-65
2022/02/26 11:58:28;;;;;;;127.60;121.90;;;8.50;99.90;;;;;;4364635;32;20189;-65
2022/02/26 12:01:00;;;;;;;125.43;119.30;;;8.30;99.90;;;;;;4361442;32;20172;-65
2022/02/26 12:03:34;;;;;;;133.77;127.23;;;8.10;99.90;;;;;;4358278;33;20168;-67
2022/02/26 12:06:43;;;;;;;129.10;122.77;;;8.00;99.90;;;;;;4361320;32;20610;-62
2022/02/26 12:09:22;;;;;;;126.50;119.80;;;8.00;99.90;;;;;;4332074;33;20193;-65
2022/02/26 12:11:56;;;;;;;127.00;121.07;;;8.00;99.90;;;;;;4329642;33;20220;-66
2022/02/26 12:14:30;;;;;;;137.80;131.30;;;8.10;99.90;;;;;;4330219;33;20562;-66
2022/02/26 12:17:04;;;;;;;127.23;121.10;;;8.10;99.90;;;;;;4330817;33;20153;-63
2022/02/26 12:19:45;;;;;;;136.97;130.67;;;8.00;99.90;;;;;;4331593;33;20161;-66
2022/02/26 12:22:29;;;;;;;131.67;124.43;;;8.00;99.90;;;;;;4328706;33;20166;-63
2022/02/26 12:25:14;;;;;;;124.93;119.17;;;8.00;99.90;;;;;;4331599;33;20649;-65
2022/02/26 12:28:01;;;;;;;140.47;133.67;;;8.00;99.90;;;;;;4329306;33;20228;-64
2022/02/26 12:30:35;;;;;;;128.60;122.03;;;8.10;99.90;;;;;;4330177;33;20169;-64
2022/02/26 12:33:05;;;;;;;135.17;128.73;;;8.10;99.90;;;;;;4324344;33;20185;-65
2022/02/26 12:35:38;;;;;;;134.40;128.20;;;8.10;99.90;;;;;;4330617;33;20166;-64
2022/02/26 12:38:21;;;;;;;136.90;130.70;;;8.20;99.90;;;;;;4329925;33;20154;-65
2022/02/26 12:40:53;;;;;;;136.00;130.10;;;8.40;99.90;;;;;;4313675;33;20161;-66
2022/02/26 12:43:27;;;;;;;143.17;136.40;;;8.40;99.90;;;;;;4324047;33;20330;-64
2022/02/26 12:46:05;;;;;;;131.37;125.33;;;8.40;99.90;;;;;;4341694;33;20261;-64
2022/02/26 12:48:45;;;;;;;129.20;123.20;;;8.30;99.90;;;;;;4361587;32;20522;-66